Douglas Lake, Canada
Current Conditions -  °F | °C
As of 12:00 AM on Monday 22 Dec 2014 (Local Time) from CYLW Reporting Station
Overcast Overcast  
Wind Chill: 36°   Ceiling: 6000
Heat Index: 41°   Visibility: 9mi
Dew Point: 32°   Wind: 8mph
Humidity: 70%   Direction: 190°S
Pressure: 29.92"   Gusts: NA
Location:  50.15°N, 120.18°W
Report Text: CYLW 220800Z AUTO 19007KT 100V230 9SM FEW049 OVC060 05/00 A2992 RMK SLP141
Loading
Personal Weather Stations






























Interactive Weather Map New forecast layout! Learn more

10-Day Weather Forecast

Advertisements
Track Severe Weather on mobile